American Falls, Idaho
Current Conditions -  °F | °C
As of 4:53 AM on Thursday 23 Oct 2014 (Local Time) from KPIH Reporting Station
Clear Clear  
Wind Chill:   Ceiling: Unl
Heat Index:   Visibility: 10mi
Dew Point: -2°   Wind: 7mph
Humidity: 65%   Direction: 320°NW
Pressure: 30.1"   Gusts: NA
Location:  42.79°N, 112.85°W
Report Text: KPIH 231053Z AUTO 32006KT 10SM CLR 04/M02 A3010 RMK AO2 SLP178 T00441017
Loading
Personal Weather Stations






























Interactive Weather Map
Tropical Storm Tracking
New forecast layout! Learn more

10-Day Weather Forecast

Advertisements
Track Severe Weather on mobile